sensor_id;sensor_type;location;lat;lon;timestamp;pressure;altitude;pressure_sealevel;temperature;humidity
74466;BME280;62916;50.044;15.938;2023-04-15T00:01:21;97656.13;;;19.40;57.75
74466;BME280;62916;50.044;15.938;2023-04-15T00:03:53;97655.93;;;19.36;57.72
74466;BME280;62916;50.044;15.938;2023-04-15T00:06:24;97664.69;;;19.36;57.72
74466;BME280;62916;50.044;15.938;2023-04-15T00:08:57;97668.23;;;19.35;57.61
74466;BME280;62916;50.044;15.938;2023-04-15T00:11:28;97667.52;;;19.30;57.72
74466;BME280;62916;50.044;15.938;2023-04-15T00:13:59;97674.17;;;19.32;57.58
74466;BME280;62916;50.044;15.938;2023-04-15T00:16:32;97680.64;;;19.31;57.62
74466;BME280;62916;50.044;15.938;2023-04-15T00:19:04;97679.30;;;19.29;57.47
74466;BME280;62916;50.044;15.938;2023-04-15T00:21:35;97679.73;;;19.28;57.45
74466;BME280;62916;50.044;15.938;2023-04-15T00:24:06;97675.65;;;19.26;57.40
74466;BME280;62916;50.044;15.938;2023-04-15T00:26:37;97682.43;;;19.25;57.42
74466;BME280;62916;50.044;15.938;2023-04-15T00:29:08;97688.41;;;19.24;57.35
74466;BME280;62916;50.044;15.938;2023-04-15T00:31:39;97687.05;;;19.21;57.40
74466;BME280;62916;50.044;15.938;2023-04-15T00:34:10;97688.55;;;19.21;57.34
74466;BME280;62916;50.044;15.938;2023-04-15T00:36:41;97691.93;;;19.19;57.41
74466;BME280;62916;50.044;15.938;2023-04-15T00:39:13;97691.51;;;19.19;57.43
74466;BME280;62916;50.044;15.938;2023-04-15T00:41:45;97689.98;;;19.18;57.47
74466;BME280;62916;50.044;15.938;2023-04-15T00:44:15;97693.49;;;19.18;57.36
74466;BME280;62916;50.044;15.938;2023-04-15T00:46:47;97695.19;;;19.16;57.23
74466;BME280;62916;50.044;15.938;2023-04-15T00:49:21;97693.77;;;19.15;57.24
74466;BME280;62916;50.044;15.938;2023-04-15T00:51:52;97694.77;;;19.13;57.22
74466;BME280;62916;50.044;15.938;2023-04-15T00:54:24;97701.14;;;19.11;57.30
74466;BME280;62916;50.044;15.938;2023-04-15T00:56:54;97699.40;;;19.10;57.34
74466;BME280;62916;50.044;15.938;2023-04-15T00:59:26;97703.16;;;19.06;57.23
74466;BME280;62916;50.044;15.938;2023-04-15T01:01:57;97715.71;;;19.06;57.30
74466;BME280;62916;50.044;15.938;2023-04-15T01:04:28;97717.41;;;19.05;57.34
74466;BME280;62916;50.044;15.938;2023-04-15T01:06:59;97723.66;;;19.04;57.20
74466;BME280;62916;50.044;15.938;2023-04-15T01:09:30;97722.45;;;19.04;57.29
74466;BME280;62916;50.044;15.938;2023-04-15T01:12:02;97718.36;;;19.00;57.20
74466;BME280;62916;50.044;15.938;2023-04-15T01:14:33;97724.17;;;19.01;57.21
74466;BME280;62916;50.044;15.938;2023-04-15T01:17:04;97725.57;;;18.99;57.23
74466;BME280;62916;50.044;15.938;2023-04-15T01:19:36;97731.10;;;18.97;57.22
74466;BME280;62916;50.044;15.938;2023-04-15T01:22:07;97742.30;;;18.96;57.35
74466;BME280;62916;50.044;15.938;2023-04-15T01:24:38;97746.33;;;18.95;57.22
74466;BME280;62916;50.044;15.938;2023-04-15T01:27:10;97747.29;;;18.92;57.27
74466;BME280;62916;50.044;15.938;2023-04-15T01:29:41;97756.90;;;18.92;57.23
74466;BME280;62916;50.044;15.938;2023-04-15T01:32:12;97755.73;;;18.89;57.16
74466;BME280;62916;50.044;15.938;2023-04-15T01:34:43;97752.61;;;18.85;57.32
74466;BME280;62916;50.044;15.938;2023-04-15T01:37:14;97760.44;;;18.88;57.23
74466;BME280;62916;50.044;15.938;2023-04-15T01:39:45;97770.33;;;18.86;57.29
74466;BME280;62916;50.044;15.938;2023-04-15T01:42:15;97784.17;;;18.85;57.25
74466;BME280;62916;50.044;15.938;2023-04-15T01:44:46;97787.77;;;18.83;57.26
74466;BME280;62916;50.044;15.938;2023-04-15T01:47:17;97786.95;;;18.82;57.16
74466;BME280;62916;50.044;15.938;2023-04-15T01:49:48;97788.56;;;18.83;57.15
74466;BME280;62916;50.044;15.938;2023-04-15T01:52:19;97787.23;;;18.81;56.97
74466;BME280;62916;50.044;15.938;2023-04-15T01:54:51;97783.52;;;18.77;57.07
74466;BME280;62916;50.044;15.938;2023-04-15T01:57:22;97788.46;;;18.78;56.83
74466;BME280;62916;50.044;15.938;2023-04-15T01:59:52;97792.96;;;18.76;56.99
74466;BME280;62916;50.044;15.938;2023-04-15T02:02:23;97793.20;;;18.74;56.98
74466;BME280;62916;50.044;15.938;2023-04-15T02:04:55;97794.98;;;18.72;57.09
74466;BME280;62916;50.044;15.938;2023-04-15T02:07:26;97797.75;;;18.71;57.13
74466;BME280;62916;50.044;15.938;2023-04-15T02:10:00;97801.93;;;18.71;57.18
74466;BME280;62916;50.044;15.938;2023-04-15T02:12:31;97803.20;;;18.67;57.34
74466;BME280;62916;50.044;15.938;2023-04-15T02:15:02;97804.41;;;18.71;57.13
74466;BME280;62916;50.044;15.938;2023-04-15T02:17:35;97807.06;;;18.69;56.89
74466;BME280;62916;50.044;15.938;2023-04-15T02:20:09;97803.79;;;18.70;56.89
74466;BME280;62916;50.044;15.938;2023-04-15T02:22:40;97803.82;;;18.70;56.74
74466;BME280;62916;50.044;15.938;2023-04-15T02:25:12;97810.53;;;18.70;56.47
74466;BME280;62916;50.044;15.938;2023-04-15T02:27:43;97808.75;;;18.67;56.24
74466;BME280;62916;50.044;15.938;2023-04-15T02:30:14;97813.08;;;18.66;56.09
74466;BME280;62916;50.044;15.938;2023-04-15T02:32:45;97814.13;;;18.63;56.11
74466;BME280;62916;50.044;15.938;2023-04-15T02:35:16;97813.92;;;18.62;56.17
74466;BME280;62916;50.044;15.938;2023-04-15T02:37:48;97813.48;;;18.61;56.02
74466;BME280;62916;50.044;15.938;2023-04-15T02:40:21;97818.55;;;18.60;55.98
74466;BME280;62916;50.044;15.938;2023-04-15T02:42:52;97822.95;;;18.58;55.98
74466;BME280;62916;50.044;15.938;2023-04-15T02:45:22;97829.14;;;18.57;56.08
74466;BME280;62916;50.044;15.938;2023-04-15T02:47:56;97833.33;;;18.55;56.04
74466;BME280;62916;50.044;15.938;2023-04-15T02:50:27;97834.71;;;18.54;56.07
74466;BME280;62916;50.044;15.938;2023-04-15T02:52:58;97833.85;;;18.52;55.95
74466;BME280;62916;50.044;15.938;2023-04-15T02:55:31;97837.96;;;18.51;56.13
74466;BME280;62916;50.044;15.938;2023-04-15T02:58:01;97833.51;;;18.50;56.13
74466;BME280;62916;50.044;15.938;2023-04-15T03:00:33;97831.55;;;18.47;56.14
74466;BME280;62916;50.044;15.938;2023-04-15T03:03:05;97827.09;;;18.47;56.20
74466;BME280;62916;50.044;15.938;2023-04-15T03:05:36;97825.21;;;18.46;56.33
74466;BME280;62916;50.044;15.938;2023-04-15T03:08:08;97826.31;;;18.45;56.23
74466;BME280;62916;50.044;15.938;2023-04-15T03:10:38;97834.54;;;18.44;56.25
74466;BME280;62916;50.044;15.938;2023-04-15T03:13:09;97839.77;;;18.43;56.34
74466;BME280;62916;50.044;15.938;2023-04-15T03:15:40;97845.13;;;18.42;56.32
74466;BME280;62916;50.044;15.938;2023-04-15T03:18:11;97841.31;;;18.41;56.45
74466;BME280;62916;50.044;15.938;2023-04-15T03:20:43;97844.15;;;18.40;56.36
74466;BME280;62916;50.044;15.938;2023-04-15T03:23:14;97844.25;;;18.38;56.51
74466;BME280;62916;50.044;15.938;2023-04-15T03:25:46;97850.23;;;18.37;56.64
74466;BME280;62916;50.044;15.938;2023-04-15T03:28:17;97845.34;;;18.37;56.49
74466;BME280;62916;50.044;15.938;2023-04-15T03:30:47;97840.24;;;18.34;56.57
74466;BME280;62916;50.044;15.938;2023-04-15T03:33:18;97850.60;;;18.35;56.64
74466;BME280;62916;50.044;15.938;2023-04-15T03:35:49;97856.11;;;18.34;56.68
74466;BME280;62916;50.044;15.938;2023-04-15T03:38:20;97861.67;;;18.33;56.65
74466;BME280;62916;50.044;15.938;2023-04-15T03:40:51;97863.55;;;18.32;56.73
74466;BME280;62916;50.044;15.938;2023-04-15T03:43:21;97862.25;;;18.31;56.90
74466;BME280;62916;50.044;15.938;2023-04-15T03:45:52;97860.54;;;18.31;56.87
74466;BME280;62916;50.044;15.938;2023-04-15T03:48:23;97854.33;;;18.30;56.80
74466;BME280;62916;50.044;15.938;2023-04-15T03:50:54;97854.13;;;18.29;56.99
74466;BME280;62916;50.044;15.938;2023-04-15T03:53:25;97861.79;;;18.28;56.89
74466;BME280;62916;50.044;15.938;2023-04-15T03:55:56;97864.44;;;18.28;57.00
74466;BME280;62916;50.044;15.938;2023-04-15T03:58:27;97867.77;;;18.27;57.08
74466;BME280;62916;50.044;15.938;2023-04-15T04:00:57;97861.33;;;18.27;57.15
74466;BME280;62916;50.044;15.938;2023-04-15T04:03:28;97863.41;;;18.25;57.10
74466;BME280;62916;50.044;15.938;2023-04-15T04:05:59;97870.67;;;18.26;56.75
74466;BME280;62916;50.044;15.938;2023-04-15T04:08:30;97869.76;;;18.27;56.95
74466;BME280;62916;50.044;15.938;2023-04-15T04:11:01;97877.51;;;18.30;57.10
74466;BME280;62916;50.044;15.938;2023-04-15T04:13:31;97875.07;;;18.31;57.28
74466;BME280;62916;50.044;15.938;2023-04-15T04:16:02;97880.52;;;18.38;57.41
74466;BME280;62916;50.044;15.938;2023-04-15T04:18:34;97878.67;;;18.43;57.38
74466;BME280;62916;50.044;15.938;2023-04-15T04:21:05;97881.96;;;18.46;57.45
74466;BME280;62916;50.044;15.938;2023-04-15T04:23:36;97884.86;;;18.50;57.42
74466;BME280;62916;50.044;15.938;2023-04-15T04:26:07;97888.52;;;18.54;57.43
74466;BME280;62916;50.044;15.938;2023-04-15T04:28:37;97892.71;;;18.57;57.44
74466;BME280;62916;50.044;15.938;2023-04-15T04:31:09;97890.17;;;18.61;57.47
74466;BME280;62916;50.044;15.938;2023-04-15T04:33:40;97892.05;;;18.64;57.49
74466;BME280;62916;50.044;15.938;2023-04-15T04:36:10;97887.39;;;18.67;57.49
74466;BME280;62916;50.044;15.938;2023-04-15T04:38:41;97885.30;;;18.69;57.44
74466;BME280;62916;50.044;15.938;2023-04-15T04:41:12;97887.01;;;18.74;57.55
74466;BME280;62916;50.044;15.938;2023-04-15T04:43:42;97891.80;;;18.78;57.53
74466;BME280;62916;50.044;15.938;2023-04-15T04:46:13;97892.39;;;18.80;57.53
74466;BME280;62916;50.044;15.938;2023-04-15T04:48:44;97888.38;;;18.82;57.52
74466;BME280;62916;50.044;15.938;2023-04-15T04:51:15;97888.79;;;18.84;57.54
74466;BME280;62916;50.044;15.938;2023-04-15T04:53:46;97893.23;;;18.87;57.46
74466;BME280;62916;50.044;15.938;2023-04-15T04:56:17;97896.46;;;18.89;57.50
74466;BME280;62916;50.044;15.938;2023-04-15T04:58:48;97901.06;;;18.91;57.60
74466;BME280;62916;50.044;15.938;2023-04-15T05:01:19;97902.23;;;18.93;57.61
74466;BME280;62916;50.044;15.938;2023-04-15T05:03:50;97896.72;;;18.94;57.57
74466;BME280;62916;50.044;15.938;2023-04-15T05:06:22;97897.17;;;18.95;57.59
74466;BME280;62916;50.044;15.938;2023-04-15T05:08:52;97892.41;;;18.96;57.55
74466;BME280;62916;50.044;15.938;2023-04-15T05:11:25;97894.46;;;18.97;57.51
74466;BME280;62916;50.044;15.938;2023-04-15T05:13:56;97900.22;;;18.98;57.61
74466;BME280;62916;50.044;15.938;2023-04-15T05:16:28;97907.48;;;18.99;57.50
74466;BME280;62916;50.044;15.938;2023-04-15T05:18:59;97912.70;;;19.01;57.61
74466;BME280;62916;50.044;15.938;2023-04-15T05:21:30;97915.45;;;19.01;57.57
74466;BME280;62916;50.044;15.938;2023-04-15T05:24:01;97913.00;;;18.99;57.56
74466;BME280;62916;50.044;15.938;2023-04-15T05:26:32;97918.21;;;19.02;57.53
74466;BME280;62916;50.044;15.938;2023-04-15T05:29:03;97919.64;;;19.02;57.53
74466;BME280;62916;50.044;15.938;2023-04-15T05:31:34;97925.68;;;19.02;57.52
74466;BME280;62916;50.044;15.938;2023-04-15T05:34:05;97928.95;;;19.02;57.47
74466;BME280;62916;50.044;15.938;2023-04-15T05:36:36;97932.08;;;19.02;57.74
74466;BME280;62916;50.044;15.938;2023-04-15T05:39:06;97928.14;;;19.02;57.52
74466;BME280;62916;50.044;15.938;2023-04-15T05:41:38;97932.73;;;19.02;57.53
74466;BME280;62916;50.044;15.938;2023-04-15T05:44:09;97933.95;;;19.02;57.57
74466;BME280;62916;50.044;15.938;2023-04-15T05:46:40;97941.89;;;19.02;57.59
74466;BME280;62916;50.044;15.938;2023-04-15T05:49:11;97947.98;;;19.02;57.50
74466;BME280;62916;50.044;15.938;2023-04-15T05:51:42;97945.58;;;19.02;57.51
74466;BME280;62916;50.044;15.938;2023-04-15T05:54:13;97948.46;;;19.02;57.47
74466;BME280;62916;50.044;15.938;2023-04-15T05:56:47;97951.20;;;19.02;57.56
74466;BME280;62916;50.044;15.938;2023-04-15T05:59:18;97947.08;;;19.01;57.51
74466;BME280;62916;50.044;15.938;2023-04-15T06:01:49;97949.73;;;19.01;57.53
74466;BME280;62916;50.044;15.938;2023-04-15T06:04:20;97956.20;;;19.01;57.50
74466;BME280;62916;50.044;15.938;2023-04-15T06:06:51;97959.15;;;19.00;57.50
74466;BME280;62916;50.044;15.938;2023-04-15T06:09:22;97957.59;;;19.00;57.48
74466;BME280;62916;50.044;15.938;2023-04-15T06:11:53;97955.48;;;18.99;57.48
74466;BME280;62916;50.044;15.938;2023-04-15T06:14:25;97958.36;;;18.99;57.48
74466;BME280;62916;50.044;15.938;2023-04-15T06:16:56;97961.40;;;18.99;57.44
74466;BME280;62916;50.044;15.938;2023-04-15T06:19:27;97969.86;;;18.98;57.39
74466;BME280;62916;50.044;15.938;2023-04-15T06:21:58;97972.84;;;18.98;57.45
74466;BME280;62916;50.044;15.938;2023-04-15T06:24:29;97975.68;;;18.97;57.43
74466;BME280;62916;50.044;15.938;2023-04-15T06:27:01;97975.42;;;18.96;57.42
74466;BME280;62916;50.044;15.938;2023-04-15T06:29:32;97978.27;;;18.95;57.45
74466;BME280;62916;50.044;15.938;2023-04-15T06:32:03;97983.55;;;18.95;57.46
74466;BME280;62916;50.044;15.938;2023-04-15T06:34:34;97989.64;;;18.95;57.45
74466;BME280;62916;50.044;15.938;2023-04-15T06:37:05;97986.95;;;18.92;57.52
74466;BME280;62916;50.044;15.938;2023-04-15T06:39:36;97992.80;;;18.93;57.37
74466;BME280;62916;50.044;15.938;2023-04-15T06:42:07;97993.97;;;18.92;57.45
74466;BME280;62916;50.044;15.938;2023-04-15T06:44:38;97995.05;;;18.91;57.51
74466;BME280;62916;50.044;15.938;2023-04-15T06:47:09;97996.25;;;18.91;57.55
74466;BME280;62916;50.044;15.938;2023-04-15T06:49:41;97985.97;;;18.89;57.58
74466;BME280;62916;50.044;15.938;2023-04-15T06:52:13;97993.90;;;18.91;57.58
74466;BME280;62916;50.044;15.938;2023-04-15T06:54:45;97990.14;;;18.89;57.65
74466;BME280;62916;50.044;15.938;2023-04-15T06:57:16;97999.19;;;18.90;57.65
74466;BME280;62916;50.044;15.938;2023-04-15T06:59:47;98001.21;;;18.89;57.68
74466;BME280;62916;50.044;15.938;2023-04-15T07:02:18;98004.19;;;18.91;57.70
74466;BME280;62916;50.044;15.938;2023-04-15T07:04:49;98007.55;;;18.91;57.68
74466;BME280;62916;50.044;15.938;2023-04-15T07:07:20;97999.73;;;18.86;57.76
74466;BME280;62916;50.044;15.938;2023-04-15T07:09:51;98007.00;;;18.87;57.80
74466;BME280;62916;50.044;15.938;2023-04-15T07:12:22;98008.38;;;18.86;57.85
74466;BME280;62916;50.044;15.938;2023-04-15T07:14:53;98008.35;;;18.86;57.83
74466;BME280;62916;50.044;15.938;2023-04-15T07:17:24;98005.88;;;18.84;57.82
74466;BME280;62916;50.044;15.938;2023-04-15T07:19:55;98009.24;;;18.83;57.97
74466;BME280;62916;50.044;15.938;2023-04-15T07:22:27;98011.42;;;18.82;57.86
74466;BME280;62916;50.044;15.938;2023-04-15T07:24:57;98015.81;;;18.81;58.00
74466;BME280;62916;50.044;15.938;2023-04-15T07:27:28;98017.77;;;18.80;57.86
74466;BME280;62916;50.044;15.938;2023-04-15T07:29:59;98026.27;;;18.80;58.00
74466;BME280;62916;50.044;15.938;2023-04-15T07:32:30;98024.94;;;18.79;57.91
74466;BME280;62916;50.044;15.938;2023-04-15T07:35:01;98021.08;;;18.79;58.00
74466;BME280;62916;50.044;15.938;2023-04-15T07:37:32;98021.80;;;18.79;58.02
74466;BME280;62916;50.044;15.938;2023-04-15T07:40:05;98026.16;;;18.81;57.97
74466;BME280;62916;50.044;15.938;2023-04-15T07:42:37;98022.10;;;18.82;57.94
74466;BME280;62916;50.044;15.938;2023-04-15T07:45:11;98033.08;;;18.81;57.78
74466;BME280;62916;50.044;15.938;2023-04-15T07:47:42;98034.00;;;18.81;57.68
74466;BME280;62916;50.044;15.938;2023-04-15T07:50:13;98032.98;;;18.81;57.68
74466;BME280;62916;50.044;15.938;2023-04-15T07:52:45;98036.60;;;18.80;57.54
74466;BME280;62916;50.044;15.938;2023-04-15T07:55:16;98037.03;;;18.79;57.52
74466;BME280;62916;50.044;15.938;2023-04-15T07:57:50;98038.33;;;18.77;57.42
74466;BME280;62916;50.044;15.938;2023-04-15T08:00:20;98043.35;;;18.78;57.47
74466;BME280;62916;50.044;15.938;2023-04-15T08:02:52;98045.10;;;18.78;57.36
74466;BME280;62916;50.044;15.938;2023-04-15T08:05:23;98043.11;;;18.77;57.31
74466;BME280;62916;50.044;15.938;2023-04-15T08:07:54;98048.03;;;18.75;57.18
74466;BME280;62916;50.044;15.938;2023-04-15T08:10:27;98048.87;;;18.74;57.08
74466;BME280;62916;50.044;15.938;2023-04-15T08:12:59;98053.61;;;18.72;57.12
74466;BME280;62916;50.044;15.938;2023-04-15T08:15:30;98053.13;;;18.71;57.09
74466;BME280;62916;50.044;15.938;2023-04-15T08:18:01;98051.23;;;18.71;57.07
74466;BME280;62916;50.044;15.938;2023-04-15T08:20:32;98050.35;;;18.69;56.96
74466;BME280;62916;50.044;15.938;2023-04-15T08:23:03;98050.31;;;18.68;57.03
74466;BME280;62916;50.044;15.938;2023-04-15T08:25:34;98049.35;;;18.66;56.96
74466;BME280;62916;50.044;15.938;2023-04-15T08:28:06;98052.70;;;18.64;57.01
74466;BME280;62916;50.044;15.938;2023-04-15T08:30:38;98054.23;;;18.65;56.88
74466;BME280;62916;50.044;15.938;2023-04-15T08:33:09;98058.21;;;18.64;56.84
74466;BME280;62916;50.044;15.938;2023-04-15T08:35:41;98058.62;;;18.62;56.82
74466;BME280;62916;50.044;15.938;2023-04-15T08:38:11;98061.79;;;18.61;56.75
74466;BME280;62916;50.044;15.938;2023-04-15T08:40:44;98059.22;;;18.59;56.78
74466;BME280;62916;50.044;15.938;2023-04-15T08:43:17;98061.27;;;18.58;56.63
74466;BME280;62916;50.044;15.938;2023-04-15T08:45:50;98061.96;;;18.55;55.70
74466;BME280;62916;50.044;15.938;2023-04-15T08:48:22;98070.64;;;18.56;55.27
74466;BME280;62916;50.044;15.938;2023-04-15T08:50:54;98071.11;;;18.55;55.19
74466;BME280;62916;50.044;15.938;2023-04-15T08:53:25;98069.89;;;18.55;54.92
74466;BME280;62916;50.044;15.938;2023-04-15T08:55:58;98069.34;;;18.53;54.42
74466;BME280;62916;50.044;15.938;2023-04-15T08:58:30;98072.73;;;18.52;54.11
74466;BME280;62916;50.044;15.938;2023-04-15T09:01:02;98071.13;;;18.50;53.84
74466;BME280;62916;50.044;15.938;2023-04-15T09:03:33;98065.52;;;18.48;53.44
74466;BME280;62916;50.044;15.938;2023-04-15T09:06:06;98066.17;;;18.49;53.05
74466;BME280;62916;50.044;15.938;2023-04-15T09:08:38;98067.63;;;18.47;52.99
74466;BME280;62916;50.044;15.938;2023-04-15T09:11:09;98063.95;;;18.46;52.72
74466;BME280;62916;50.044;15.938;2023-04-15T09:13:40;98063.88;;;18.45;52.06
74466;BME280;62916;50.044;15.938;2023-04-15T09:16:12;98062.70;;;18.45;52.30
74466;BME280;62916;50.044;15.938;2023-04-15T09:18:44;98064.74;;;18.44;52.40
74466;BME280;62916;50.044;15.938;2023-04-15T09:21:17;98069.36;;;18.44;52.41
74466;BME280;62916;50.044;15.938;2023-04-15T09:23:58;98067.09;;;18.43;52.41
74466;BME280;62916;50.044;15.938;2023-04-15T09:26:35;98072.36;;;18.42;52.36
74466;BME280;62916;50.044;15.938;2023-04-15T09:29:07;98073.72;;;18.40;52.37
74466;BME280;62916;50.044;15.938;2023-04-15T09:31:39;98076.55;;;18.39;52.49
74466;BME280;62916;50.044;15.938;2023-04-15T09:34:11;98072.43;;;18.38;52.49
74466;BME280;62916;50.044;15.938;2023-04-15T09:36:55;98074.84;;;18.40;52.68
74466;BME280;62916;50.044;15.938;2023-04-15T09:39:26;98080.05;;;18.40;52.64
74466;BME280;62916;50.044;15.938;2023-04-15T09:42:06;98080.23;;;18.42;52.80
74466;BME280;62916;50.044;15.938;2023-04-15T09:44:37;98073.98;;;18.41;52.94
74466;BME280;62916;50.044;15.938;2023-04-15T09:47:09;98082.48;;;18.45;52.96
74466;BME280;62916;50.044;15.938;2023-04-15T09:49:59;98081.27;;;18.44;52.95
74466;BME280;62916;50.044;15.938;2023-04-15T09:52:31;98085.52;;;18.44;53.10
74466;BME280;62916;50.044;15.938;2023-04-15T09:55:02;98082.09;;;18.43;53.22
74466;BME280;62916;50.044;15.938;2023-04-15T09:57:37;98085.96;;;18.46;53.28
74466;BME280;62916;50.044;15.938;2023-04-15T10:00:11;98097.71;;;18.48;53.34
74466;BME280;62916;50.044;15.938;2023-04-15T10:02:43;98097.39;;;18.47;53.33
74466;BME280;62916;50.044;15.938;2023-04-15T10:05:16;98098.08;;;18.47;53.49
74466;BME280;62916;50.044;15.938;2023-04-15T10:07:47;98100.66;;;18.47;53.59
74466;BME280;62916;50.044;15.938;2023-04-15T10:10:19;98098.88;;;18.48;53.72
74466;BME280;62916;50.044;15.938;2023-04-15T10:12:52;98099.23;;;18.49;53.58
74466;BME280;62916;50.044;15.938;2023-04-15T10:15:24;98093.39;;;18.44;53.78
74466;BME280;62916;50.044;15.938;2023-04-15T10:17:56;98099.97;;;18.49;53.78
74466;BME280;62916;50.044;15.938;2023-04-15T10:20:29;98095.80;;;18.46;53.98
74466;BME280;62916;50.044;15.938;2023-04-15T10:23:00;98098.45;;;18.48;53.92
74466;BME280;62916;50.044;15.938;2023-04-15T10:25:33;98099.48;;;18.49;53.88
74466;BME280;62916;50.044;15.938;2023-04-15T10:28:06;98104.76;;;18.49;53.89
74466;BME280;62916;50.044;15.938;2023-04-15T10:30:38;98104.72;;;18.48;54.09
74466;BME280;62916;50.044;15.938;2023-04-15T10:33:09;98105.94;;;18.48;54.03
74466;BME280;62916;50.044;15.938;2023-04-15T10:35:43;98110.95;;;18.51;54.25
74466;BME280;62916;50.044;15.938;2023-04-15T10:38:36;98121.80;;;18.51;54.22
74466;BME280;62916;50.044;15.938;2023-04-15T10:41:21;98121.08;;;18.51;54.31
74466;BME280;62916;50.044;15.938;2023-04-15T10:43:54;98124.31;;;18.52;54.19
74466;BME280;62916;50.044;15.938;2023-04-15T10:46:37;98123.52;;;18.52;54.37
74466;BME280;62916;50.044;15.938;2023-04-15T10:49:09;98125.23;;;18.53;54.40
74466;BME280;62916;50.044;15.938;2023-04-15T10:51:44;98130.47;;;18.53;54.48
74466;BME280;62916;50.044;15.938;2023-04-15T10:54:30;98130.64;;;18.54;54.51
74466;BME280;62916;50.044;15.938;2023-04-15T10:57:13;98132.59;;;18.54;54.45
74466;BME280;62916;50.044;15.938;2023-04-15T11:00:11;98133.08;;;18.54;54.53
74466;BME280;62916;50.044;15.938;2023-04-15T11:02:47;98130.61;;;18.55;54.58
74466;BME280;62916;50.044;15.938;2023-04-15T11:05:47;98129.98;;;18.55;54.63
74466;BME280;62916;50.044;15.938;2023-04-15T11:08:14;98128.16;;;18.54;54.56
74466;BME280;62916;50.044;15.938;2023-04-15T11:10:55;98127.39;;;18.55;54.72
74466;BME280;62916;50.044;15.938;2023-04-15T11:13:30;98127.83;;;18.55;54.73
74466;BME280;62916;50.044;15.938;2023-04-15T11:16:03;98128.09;;;18.56;54.74
74466;BME280;62916;50.044;15.938;2023-04-15T11:18:35;98127.83;;;18.53;54.62
74466;BME280;62916;50.044;15.938;2023-04-15T11:21:07;98133.38;;;18.55;54.67
74466;BME280;62916;50.044;15.938;2023-04-15T11:23:40;98136.45;;;18.55;54.60
74466;BME280;62916;50.044;15.938;2023-04-15T11:26:15;98136.83;;;18.54;54.70
74466;BME280;62916;50.044;15.938;2023-04-15T11:28:46;98134.55;;;18.53;54.67
74466;BME280;62916;50.044;15.938;2023-04-15T11:31:18;98137.36;;;18.51;54.72
74466;BME280;62916;50.044;15.938;2023-04-15T11:33:55;98134.84;;;18.49;54.64
74466;BME280;62916;50.044;15.938;2023-04-15T11:36:29;98137.63;;;18.50;54.68
74466;BME280;62916;50.044;15.938;2023-04-15T11:39:00;98134.85;;;18.49;54.67
74466;BME280;62916;50.044;15.938;2023-04-15T11:41:32;98137.95;;;18.48;54.60
74466;BME280;62916;50.044;15.938;2023-04-15T11:44:14;98135.94;;;18.48;54.62
74466;BME280;62916;50.044;15.938;2023-04-15T11:46:47;98135.08;;;18.45;54.66
74466;BME280;62916;50.044;15.938;2023-04-15T11:49:28;98137.79;;;18.47;54.53
74466;BME280;62916;50.044;15.938;2023-04-15T11:52:11;98137.64;;;18.45;54.61
74466;BME280;62916;50.044;15.938;2023-04-15T11:54:42;98142.64;;;18.46;54.70
74466;BME280;62916;50.044;15.938;2023-04-15T11:57:13;98144.72;;;18.46;54.71
74466;BME280;62916;50.044;15.938;2023-04-15T11:59:45;98144.33;;;18.47;54.83
74466;BME280;62916;50.044;15.938;2023-04-15T12:02:16;98154.54;;;18.49;54.84
74466;BME280;62916;50.044;15.938;2023-04-15T12:04:50;98152.56;;;18.50;54.81
74466;BME280;62916;50.044;15.938;2023-04-15T12:07:32;98161.18;;;18.51;54.88
74466;BME280;62916;50.044;15.938;2023-04-15T12:10:04;98161.80;;;18.52;54.87
74466;BME280;62916;50.044;15.938;2023-04-15T12:12:35;98165.45;;;18.54;54.86
74466;BME280;62916;50.044;15.938;2023-04-15T12:15:10;98172.66;;;18.55;54.97
74466;BME280;62916;50.044;15.938;2023-04-15T12:17:42;98178.14;;;18.55;54.87
74466;BME280;62916;50.044;15.938;2023-04-15T12:20:25;98182.73;;;18.56;55.03
74466;BME280;62916;50.044;15.938;2023-04-15T12:23:06;98186.84;;;18.56;55.00
74466;BME280;62916;50.044;15.938;2023-04-15T12:25:37;98183.92;;;18.56;54.94
74466;BME280;62916;50.044;15.938;2023-04-15T12:28:12;98186.21;;;18.56;54.96
74466;BME280;62916;50.044;15.938;2023-04-15T12:30:51;98185.33;;;18.56;55.01
74466;BME280;62916;50.044;15.938;2023-04-15T12:33:22;98191.64;;;18.57;55.03
74466;BME280;62916;50.044;15.938;2023-04-15T12:35:53;98191.90;;;18.58;55.12
74466;BME280;62916;50.044;15.938;2023-04-15T12:38:24;98190.32;;;18.59;55.24
74466;BME280;62916;50.044;15.938;2023-04-15T12:40:55;98182.98;;;18.58;55.08
74466;BME280;62916;50.044;15.938;2023-04-15T12:43:26;98188.70;;;18.60;55.17
74466;BME280;62916;50.044;15.938;2023-04-15T12:45:57;98191.64;;;18.60;55.09
74466;BME280;62916;50.044;15.938;2023-04-15T12:48:28;98189.66;;;18.60;55.20
74466;BME280;62916;50.044;15.938;2023-04-15T12:50:59;98188.05;;;18.60;55.22
74466;BME280;62916;50.044;15.938;2023-04-15T12:53:32;98189.95;;;18.60;55.21
74466;BME280;62916;50.044;15.938;2023-04-15T12:56:03;98190.31;;;18.59;55.25
74466;BME280;62916;50.044;15.938;2023-04-15T12:58:35;98196.50;;;18.59;55.34
74466;BME280;62916;50.044;15.938;2023-04-15T13:01:05;98192.34;;;18.59;55.33
74466;BME280;62916;50.044;15.938;2023-04-15T13:03:36;98191.05;;;18.61;55.42
74466;BME280;62916;50.044;15.938;2023-04-15T13:06:07;98192.96;;;18.62;55.53
74466;BME280;62916;50.044;15.938;2023-04-15T13:08:38;98193.48;;;18.63;55.42
74466;BME280;62916;50.044;15.938;2023-04-15T13:11:24;98195.82;;;18.64;55.51
74466;BME280;62916;50.044;15.938;2023-04-15T13:13:55;98199.48;;;18.63;55.47
74466;BME280;62916;50.044;15.938;2023-04-15T13:16:27;98200.71;;;18.64;55.49